KMSV

Sullivan County International Airport

Monticello, New York, USA
METAR KMSV 182333Z AUTO 08003KT 10SM BKN029 OVC034 22/19 A2989 RMK AO2
Observed Flight Rules
Aug-18 @ 23:33 UTC (12 minutes ago) Marginal Visual Flight Rules
Wind Visibility Clouds
80° at 3 knots 10 miles
  • Broken at 2,900' AGL
  • Overcast at 3,400' AGL
Temperatures Readings
Current 22°C / 72°F
Dewpoint 19°C / 66°F
Humidity 83%
Altimeter 29.89" Hg
Pressure 1012 hPa
Elevation 428
METAR KMSV 182333Z AUTO 08003KT 10SM BKN029 OVC034 22/19 A2989 RMK AO2
Observed Flight Rules
Aug-18 @ 23:33 UTC
(12 minutes ago)
MVFR
Wind Visibility
80° at 3 knots 10 miles
Clouds
  • Broken at 2,900' AGL
  • Overcast at 3,400' AGL
Temperature Dewpoint
22°C / 72°F 19°C / 66°F
Humidity Altimeter Pressure
83% 29.89" Hg 1012 hPa